Latest Weather Observations for Lucas Heights (ANSTO)

IDN60801

Issued at 12:22 pm EDT Thursday 21 March 2019 (issued every 10 minutes, with the page automatically refreshed every 10 minutes)

About weather observations | Map of weather stations | Latest weather observations for NSW | Other Formats
Station Details ID: 066023 Name: LUCAS HEIGHTS (ANSTO) Lat: -34.05 Lon: 150.98 Height: 140.0 m
Data from the previous 72 hours. | See also: Recent months for locations in New South Wales
Date/Time
EDT
Temp
°C
App
Temp
°C
Dew
Point
°C
Rel
Hum
%
Delta-T
°C
Wind Press
QNH
hPa
Press
MSL
hPa
Rain since
9am
mm
Dir  Spd
km/h
Gust
km/h
Spd
kts
Gust
kts
21/12:15pm 25.0 25.0 19.0 69 3.9 SSE 17 26 9 14 1016.5 - 0.2
21/12:00pm 24.2 23.4 18.5 70 3.6 SSE 20 28 11 15 1016.5 - 0.2
21/11:45am 24.7 25.0 19.5 73 3.4 SSE 17 28 9 15 1016.5 - 0.2
21/11:30am 24.2 24.4 19.4 74 3.1 SE 17 32 9 17 1016.5 - 0.2
21/11:15am 23.8 23.4 19.3 76 2.9 SE 20 33 11 18 1016.5 - 0.2
21/11:00am 23.8 23.7 19.6 77 2.7 SSE 19 32 10 17 1016.5 - 0.2
21/10:45am 23.4 25.0 20.0 81 2.2 SSE 11 19 6 10 1016.7 - 0.2
21/10:30am 22.0 22.1 19.2 84 1.8 SSE 17 26 9 14 1016.8 - 0.2
21/10:15am 22.2 22.6 19.8 86 1.5 S 17 28 9 15 1016.7 - 0.2
21/10:00am 21.3 22.4 19.6 90 1.1 S 13 20 7 11 1016.6 - 0.2
21/09:45am 20.5 21.5 18.7 89 1.1 S 11 19 6 10 1016.6 - 0.2
21/09:30am 20.6 21.5 18.5 88 1.3 S 11 19 6 10 1016.5 - 0.2
21/09:15am 20.7 22.0 18.5 87 1.4 S 9 20 5 11 1016.2 - 0.0
21/09:00am 20.5 21.0 18.4 88 1.3 S 13 19 7 10 1015.9 - 0.0
21/08:45am 20.0 20.3 17.8 87 1.4 SSW 13 19 7 10 1015.7 - 0.0
21/08:30am 19.9 20.1 17.6 86 1.4 SSW 13 20 7 11 1015.6 - 0.0
21/08:15am 20.0 19.8 17.6 86 1.5 SSW 15 20 8 11 1015.6 - 0.0
21/08:00am 20.0 20.1 17.5 85 1.5 SSW 13 20 7 11 1015.5 - 0.0
21/07:45am 20.0 20.0 17.3 84 1.7 SSW 13 20 7 11 1015.4 - 0.0
21/07:30am 19.9 19.9 17.1 84 1.7 SSW 13 19 7 10 1015.2 - 0.0
21/07:15am 19.8 19.4 17.1 84 1.7 SSW 15 20 8 11 1015.1 - 0.0
21/07:00am 19.7 18.5 17.0 84 1.6 SSW 19 24 10 13 1014.8 - 0.0
21/06:45am 19.7 18.5 17.1 85 1.6 SSW 19 24 10 13 1014.7 - 0.0
21/06:30am 19.5 18.7 17.1 86 1.5 SSW 17 22 9 12 1014.6 - 0.0
21/06:15am 19.1 19.0 17.0 88 1.3 SSW 13 19 7 10 1014.5 - 0.0
21/06:00am 19.1 19.7 16.9 87 1.3 SSW 9 13 5 7 1014.5 - 0.0
21/05:45am 19.1 19.0 16.9 87 1.3 SSW 13 20 7 11 1014.3 - 0.0
21/05:30am 19.0 18.5 16.8 87 1.3 SSW 15 19 8 10 1014.1 - 0.0
21/05:15am 18.9 18.8 16.9 88 1.2 SSW 13 17 7 9 1014.0 - 0.0
21/05:00am 18.7 18.2 16.8 89 1.2 SSW 15 19 8 10 1014.0 - 0.0
21/04:45am 18.3 17.6 16.4 89 1.1 SSW 15 19 8 10 1013.9 - 0.0
21/04:30am 18.2 18.2 16.3 89 1.1 SSW 11 13 6 7 1013.8 - 0.0
21/04:15am 18.5 18.6 16.4 87 1.3 SSW 11 13 6 7 1013.7 - 0.0
21/04:00am 18.7 18.9 16.7 88 1.2 SSW 11 15 6 8 1013.8 - 0.0
21/03:45am 18.6 18.8 16.7 89 1.1 SSW 11 15 6 8 1013.9 - 0.0
21/03:30am 18.6 18.4 16.8 89 1.1 SSW 13 17 7 9 1013.9 - 0.0
21/03:15am 18.4 18.2 16.6 89 1.1 SSW 13 15 7 8 1014.0 - 0.0
21/03:00am 18.6 18.5 17.0 90 1.0 SSW 13 17 7 9 1014.1 - 0.0
21/02:45am 18.6 18.1 17.0 90 1.0 SSW 15 19 8 10 1014.2 - 0.0
21/02:30am 18.4 17.6 17.0 91 0.8 SW 17 19 9 10 1014.3 - 0.0
21/02:15am 18.5 18.4 17.0 91 0.9 SW 13 15 7 8 1014.4 - 0.0
21/02:00am 18.8 18.4 17.2 90 1.0 SW 15 19 8 10 1014.6 - 0.0
21/01:45am 18.9 18.9 17.3 90 1.0 SSW 13 19 7 10 1014.7 - 0.0
21/01:30am 19.1 19.3 17.6 91 0.9 SW 13 19 7 10 1014.8 - 0.0
21/01:15am 19.0 19.0 17.3 90 1.0 SW 13 17 7 9 1015.0 - 0.0
21/01:00am 19.2 19.0 17.5 90 1.0 SW 15 19 8 10 1015.2 - 0.0
21/12:45am 19.1 18.4 17.4 90 1.0 SW 17 19 9 10 1015.2 - 0.0
21/12:30am 19.3 19.4 17.4 89 1.2 SW 13 19 7 10 1015.3 - 0.0
21/12:15am 19.5 20.4 17.5 88 1.2 SSW 9 11 5 6 1015.2 - 0.0
21/12:00am 19.8 20.8 17.7 88 1.3 SW 9 11 5 6 1015.3 - 0.0
 
Date/Time
EDT
Temp
°C
App
Temp
°C
Dew
Point
°C
Rel
Hum
%
Delta-T
°C
Wind Press
QNH
hPa
Press
MSL
hPa
Rain since
9am
mm
Dir  Spd
km/h
Gust
km/h
Spd
kts
Gust
kts
20/11:45pm 19.9 20.6 17.9 88 1.2 SSW 11 11 6 6 1015.2 - 0.0
20/11:30pm 20.0 20.7 18.0 88 1.2 SSW 11 11 6 6 1015.2 - 0.0
20/11:15pm 20.0 20.7 18.0 88 1.2 SSW 11 13 6 7 1015.2 - 0.0
20/11:00pm 20.1 21.2 18.0 88 1.3 SSW 9 11 5 6 1015.2 - 0.0
20/10:45pm 20.4 22.0 18.2 87 1.4 SSW 7 11 4 6 1015.2 - 0.0
20/10:30pm 20.5 22.3 18.4 88 1.3 SSW 6 7 3 4 1015.2 - 0.0
20/10:15pm 20.5 21.8 18.5 88 1.3 SW 9 11 5 6 1015.2 - 0.0
20/10:00pm 20.5 21.9 18.6 89 1.2 WSW 9 11 5 6 1015.2 - 0.0
20/09:45pm 20.3 22.0 18.5 89 1.1 SSW 7 11 4 6 1015.1 - 0.0
20/09:30pm 20.1 21.2 18.1 88 1.2 S 9 13 5 7 1015.1 - 0.0
20/09:15pm 20.5 22.2 18.4 88 1.3 SSE 7 11 4 6 1015.1 - 0.0
20/09:00pm 20.6 22.3 18.5 88 1.3 SSE 7 11 4 6 1015.0 - 0.0
20/08:45pm 20.9 22.8 18.6 87 1.4 SSE 6 7 3 4 1014.9 - 0.0
20/08:30pm 21.1 22.9 18.8 87 1.5 SE 7 11 4 6 1014.7 - 0.0
20/08:15pm 21.2 23.0 18.8 86 1.5 SE 7 11 4 6 1014.4 - 0.0
20/08:00pm 21.3 22.8 18.8 86 1.6 SE 9 15 5 8 1014.2 - 0.0
20/07:45pm 21.5 22.2 18.8 84 1.7 SSE 13 20 7 11 1014.1 - 0.0
20/07:30pm 21.6 22.7 18.8 84 1.8 SSE 11 19 6 10 1013.9 - 0.0
20/07:15pm 21.8 22.5 18.8 83 1.9 SSE 13 19 7 10 1013.8 - 0.0
20/07:00pm 21.9 22.6 18.8 82 2.0 SSE 13 20 7 11 1013.7 - 0.0
20/06:45pm 22.1 23.2 18.8 81 2.1 SE 11 17 6 9 1013.7 - 0.0
20/06:30pm 22.2 22.8 18.6 80 2.3 SE 13 22 7 12 1013.6 - 0.0
20/06:15pm 22.3 23.2 18.5 79 2.4 SSE 11 17 6 9 1013.5 - 0.0
20/06:00pm 22.6 22.3 18.3 76 2.7 SSE 17 24 9 13 1013.4 - 0.0
20/05:45pm 23.6 23.7 18.4 72 3.3 SSE 15 26 8 14 1013.2 - 0.0
20/05:30pm 24.1 24.7 18.7 72 3.4 SE 13 24 7 13 1013.0 - 0.0
20/05:15pm 24.1 24.0 18.7 72 3.4 ESE 17 26 9 14 1012.9 - 0.0
20/05:00pm 23.9 23.9 18.9 73 3.2 ESE 17 26 9 14 1012.8 - 0.0
20/04:45pm 24.1 23.5 18.8 72 3.4 SE 20 28 11 15 1012.8 - 0.0
20/04:30pm 24.2 23.6 18.8 72 3.4 SE 20 28 11 15 1012.8 - 0.0
20/04:15pm 24.1 23.7 18.8 72 3.4 SE 19 28 10 15 1012.9 - 0.0
20/04:00pm 24.4 23.8 18.9 71 3.5 SE 20 28 11 15 1013.0 - 0.0
20/03:45pm 24.4 24.1 19.1 72 3.4 SE 19 30 10 16 1013.1 - 0.0
20/03:30pm 24.2 24.4 19.4 74 3.1 SE 17 28 9 15 1013.1 - 0.0
20/03:15pm 23.4 24.1 18.8 75 2.9 SE 13 22 7 12 1013.2 - 0.0
20/03:00pm 23.2 23.4 18.5 75 3.0 SSE 15 22 8 12 1013.1 - 0.0
20/02:45pm 23.5 23.7 18.5 73 3.2 SSE 15 22 8 12 1013.1 - 0.0
20/02:30pm 24.4 24.2 18.4 69 3.8 SSE 17 26 9 14 1013.1 - 0.0
20/02:15pm 25.3 25.2 18.8 67 4.2 SSE 17 26 9 14 1013.2 - 0.0
20/02:00pm 24.7 24.5 18.6 69 3.9 SE 17 24 9 13 1013.3 - 0.0
20/01:45pm 24.7 24.1 18.4 68 4.0 SE 19 28 10 15 1013.4 - 0.0
20/01:30pm 25.4 25.8 19.1 68 4.1 SSE 15 26 8 14 1013.6 - 0.0
20/01:15pm 24.9 24.4 18.6 68 4.0 SE 19 28 10 15 1013.7 - 0.0
20/01:00pm 25.3 25.4 19.1 68 4.0 SE 17 28 9 15 1013.8 - 0.0
20/12:45pm 24.9 24.4 18.7 68 4.0 SE 19 26 10 14 1013.9 - 0.0
20/12:30pm 24.8 24.3 18.7 69 3.9 SE 19 26 10 14 1014.1 - 0.0
20/12:15pm 24.8 24.4 18.8 69 3.8 SE 19 24 10 13 1014.1 - 0.0
20/12:00pm 24.7 25.0 18.8 69 3.8 SSE 15 22 8 12 1014.2 - 0.0
20/11:45am 24.7 25.1 19.0 70 3.7 SSE 15 24 8 13 1014.3 - 0.0
20/11:30am 24.5 24.1 18.8 70 3.6 SSE 19 28 10 15 1014.4 - 0.0
20/11:15am 24.4 25.3 19.3 73 3.3 SE 13 24 7 13 1014.5 - 0.0
20/11:00am 24.0 23.6 18.8 72 3.3 SE 19 32 10 17 1014.6 - 0.0
20/10:45am 24.0 23.6 18.9 73 3.3 SSE 19 28 10 15 1014.6 - 0.0
20/10:30am 23.6 24.6 19.4 77 2.7 S 13 20 7 11 1014.7 - 0.0
20/10:15am 22.8 23.5 18.9 78 2.5 S 13 19 7 10 1014.5 - 0.0
20/10:00am 23.1 23.9 19.1 78 2.6 S 13 20 7 11 1014.4 - 0.0
20/09:45am 23.0 24.4 19.5 80 2.2 S 11 19 6 10 1014.3 - 0.0
20/09:30am 22.4 24.5 19.4 83 1.9 S 7 13 4 7 1014.3 - 0.0
20/09:15am 21.5 23.1 19.1 86 1.5 S 9 13 5 7 1014.2 - 0.0
20/09:00am 20.6 22.5 18.9 90 1.1 SSW 7 11 4 6 1014.2 - 0.6
20/08:45am 20.1 21.9 18.7 92 0.9 SSW 7 9 4 5 1014.2 - 0.6
20/08:30am 19.3 20.8 18.1 93 0.7 SW 7 11 4 6 1014.0 - 0.6
20/08:15am 18.7 20.0 17.6 93 0.7 SSW 7 13 4 7 1013.9 - 0.6
20/08:00am 18.1 18.8 17.0 93 0.7 S 9 11 5 6 1013.8 - 0.6
20/07:45am 17.9 18.1 16.8 93 0.7 S 11 13 6 7 1013.7 - 0.6
20/07:30am 17.7 17.4 16.5 93 0.7 S 13 15 7 8 1013.4 - 0.6
20/07:15am 17.9 18.1 16.7 93 0.7 SSW 11 15 6 8 1013.4 - 0.6
20/07:00am 18.0 18.2 16.8 93 0.7 S 11 13 6 7 1013.3 - 0.6
20/06:45am 18.1 19.1 16.9 93 0.7 SSW 7 11 4 6 1013.1 - 0.6
20/06:30am 18.1 19.3 16.9 93 0.7 S 6 7 3 4 1013.0 - 0.6
20/06:15am 18.2 18.8 16.9 92 0.8 S 9 11 5 6 1012.9 - 0.6
20/06:00am 18.2 18.5 17.0 93 0.7 S 11 15 6 8 1012.8 - 0.6
20/05:45am 18.3 18.2 17.0 92 0.8 SSW 13 15 7 8 1012.6 - 0.6
20/05:30am 18.6 19.0 17.3 92 0.8 SSW 11 15 6 8 1012.5 - 0.6
20/05:15am 18.8 19.7 17.5 92 0.8 SSW 9 13 5 7 1012.5 - 0.6
20/05:00am 19.0 20.0 17.7 92 0.8 SW 9 11 5 6 1012.6 - 0.6
20/04:45am 19.1 20.7 17.9 93 0.7 SW 6 7 3 4 1012.7 - 0.6
20/04:30am 18.9 20.8 17.6 92 0.8 S 4 6 2 3 1012.7 - 0.6
20/04:15am 18.9 20.2 17.6 92 0.8 SE 7 11 4 6 1012.8 - 0.2
20/04:00am 19.0 19.6 17.6 92 0.9 S 11 15 6 8 1012.7 - 0.0
20/03:45am 19.2 19.8 17.8 92 0.9 S 11 19 6 10 1012.6 - 0.0
20/03:30am 19.0 19.6 17.6 92 0.9 S 11 17 6 9 1012.8 - 0.0
20/03:15am 19.0 20.0 17.7 92 0.8 S 9 19 5 10 1012.8 - 0.0
20/03:00am 18.7 18.8 17.4 92 0.8 S 13 19 7 10 1013.0 - 0.0
20/02:45am 18.2 18.0 16.8 91 0.8 S 13 17 7 9 1013.1 - 0.0
20/02:30am 18.2 18.0 16.8 91 0.8 S 13 15 7 8 1013.2 - 0.0
20/02:15am 18.2 18.4 16.8 91 0.8 S 11 15 6 8 1013.4 - 0.0
20/02:00am 18.6 18.6 17.1 91 0.9 S 13 15 7 8 1013.3 - 0.0
20/01:45am 18.7 18.3 17.2 91 0.9 S 15 17 8 9 1013.4 - 0.0
20/01:30am 18.9 19.4 17.4 91 0.9 SSW 11 13 6 7 1013.6 - 0.0
20/01:15am 18.9 19.3 17.3 90 1.0 SSW 11 13 6 7 1013.6 - 0.0
20/01:00am 19.1 19.7 17.8 92 0.8 SSW 11 11 6 6 1013.6 - 0.0
20/12:45am 19.1 19.7 17.8 92 0.8 S 11 15 6 8 1013.7 - 0.0
20/12:30am 19.0 19.6 17.7 92 0.8 S 11 15 6 8 1013.9 - 0.0
20/12:15am 18.7 19.1 17.3 91 0.9 S 11 15 6 8 1014.0 - 0.0
20/12:00am 18.7 18.7 17.3 91 0.9 S 13 15 7 8 1014.0 - 0.0
 
Date/Time
EDT
Temp
°C
App
Temp
°C
Dew
Point
°C
Rel
Hum
%
Delta-T
°C
Wind Press
QNH
hPa
Press
MSL
hPa
Rain since
9am
mm
Dir  Spd
km/h
Gust
km/h
Spd
kts
Gust
kts
19/11:45pm 18.9 19.0 17.4 91 0.9 S 13 15 7 8 1014.2 - 0.0
19/11:30pm 19.1 19.7 17.6 91 0.9 S 11 15 6 8 1014.3 - 0.0
19/11:15pm 19.0 19.9 17.5 91 0.9 S 9 13 5 7 1014.5 - 0.0
19/11:00pm 19.1 19.6 17.5 90 1.0 S 11 13 6 7 1014.4 - 0.0
19/10:45pm 19.1 20.4 17.5 90 1.0 S 7 11 4 6 1014.4 - 0.0
19/10:30pm 19.2 20.1 17.6 90 1.0 S 9 11 5 6 1014.4 - 0.0
19/10:15pm 19.2 19.7 17.5 90 1.0 S 11 13 6 7 1014.2 - 0.0
19/10:00pm 19.4 20.4 17.7 90 1.0 S 9 11 5 6 1014.2 - 0.0
19/09:45pm 19.5 20.5 17.7 89 1.1 S 9 11 5 6 1014.1 - 0.0
19/09:30pm 19.5 20.1 17.7 89 1.1 S 11 13 6 7 1014.1 - 0.0
19/09:15pm 19.6 20.2 17.6 88 1.2 S 11 13 6 7 1014.1 - 0.0
19/09:00pm 19.6 20.5 17.5 88 1.3 S 9 11 5 6 1013.8 - 0.0
19/08:45pm 19.8 20.6 17.4 86 1.5 S 9 11 5 6 1013.6 - 0.0
19/08:30pm 20.0 20.5 17.4 85 1.6 S 11 15 6 8 1013.4 - 0.0
19/08:15pm 20.2 21.0 17.4 84 1.7 SSE 9 11 5 6 1013.2 - 0.0
19/08:00pm 20.5 21.0 17.4 82 1.9 SSE 11 15 6 8 1013.0 - 0.0
19/07:45pm 20.6 21.8 17.4 82 2.0 SSE 7 11 4 6 1012.9 - 0.0
19/07:30pm 20.8 20.9 17.5 81 2.0 SSE 13 19 7 10 1012.9 - 0.0
19/07:15pm 21.1 21.0 17.9 82 2.0 SSE 15 20 8 11 1012.7 - 0.0
19/07:00pm 21.6 21.7 18.3 81 2.1 SSE 15 20 8 11 1012.5 - 0.0
19/06:45pm 22.0 22.1 18.3 79 2.3 SSE 15 20 8 11 1012.5 - 0.0
19/06:30pm 22.4 23.3 18.3 77 2.6 SSE 11 20 6 11 1012.4 - 0.0
19/06:15pm 22.8 22.8 18.2 75 2.9 SSE 15 24 8 13 1012.3 - 0.0
19/06:00pm 22.9 23.4 18.3 75 2.9 SSE 13 20 7 11 1012.2 - 0.0
19/05:45pm 22.5 23.0 18.4 77 2.6 SSE 13 22 7 12 1012.1 - 0.0
19/05:30pm 23.2 23.2 18.0 72 3.3 SSE 15 22 8 12 1012.0 - 0.0
19/05:15pm 24.1 23.3 17.1 65 4.4 ESE 17 24 9 13 1011.8 - 0.0
19/05:00pm 23.9 23.1 17.1 65 4.2 ESE 17 22 9 12 1011.7 - 0.0
19/04:45pm 24.0 22.7 16.9 64 4.4 SE 19 26 10 14 1011.7 - 0.0
19/04:30pm 24.1 23.8 17.3 65 4.2 ESE 15 24 8 13 1011.7 - 0.0
19/04:15pm 24.0 23.4 17.5 67 4.1 SSE 17 26 9 14 1011.7 - 0.0
19/04:00pm 24.1 23.6 17.8 68 4.0 SE 17 22 9 12 1011.7 - 0.0
19/03:45pm 23.7 22.5 17.6 68 3.8 SE 20 28 11 15 1011.6 - 0.0
19/03:30pm 24.4 24.0 18.1 68 4.0 ESE 17 24 9 13 1011.7 - 0.0
19/03:15pm 23.6 24.0 18.1 71 3.5 SE 13 20 7 11 1011.9 - 0.0
19/03:00pm 23.7 23.2 17.9 70 3.6 SE 17 26 9 14 1011.9 - 0.0
19/02:45pm 23.8 23.0 17.9 69 3.7 SE 19 28 10 15 1011.9 - 0.0
19/02:30pm 24.5 23.7 18.0 67 4.1 SE 19 32 10 17 1011.9 - 0.0
19/02:15pm 24.0 23.4 17.6 67 4.0 SE 17 28 9 15 1012.0 - 0.0
19/02:00pm 24.3 23.2 17.2 64 4.4 SE 19 28 10 15 1012.0 - 0.0
19/01:45pm 24.5 23.1 17.0 63 4.7 ESE 20 32 11 17 1012.1 - 0.0
19/01:30pm 24.8 24.2 17.5 64 4.6 SE 17 26 9 14 1012.2 - 0.0
19/01:15pm 24.3 23.7 17.6 66 4.2 SE 17 28 9 15 1012.4 - 0.0
19/01:00pm 24.0 23.1 17.7 68 4.0 SSE 19 30 10 16 1012.5 - 0.0
19/12:45pm 24.1 23.2 17.7 67 4.0 SE 19 28 10 15 1012.6 - 0.0
19/12:30pm 24.1 22.6 17.6 67 4.1 SE 22 32 12 17 1012.7 - 0.0
19/12:15pm 24.1 23.0 17.8 68 4.0 SE 20 32 11 17 1012.8 - 0.0
19/12:00pm 24.0 23.1 18.2 70 3.7 SE 20 30 11 16 1012.9 - 0.0
19/11:45am 23.9 23.4 18.7 72 3.3 SE 19 28 10 15 1013.1 - 0.0
19/11:30am 22.7 22.2 18.7 78 2.5 SSE 19 26 10 14 1013.2 - 0.0
19/11:15am 22.3 23.0 18.8 80 2.2 SSE 13 20 7 11 1013.3 - 0.0
19/11:00am 22.2 23.3 18.9 81 2.1 S 11 22 6 12 1013.3 - 0.0
19/10:45am 22.4 22.8 19.0 81 2.2 SSE 15 20 8 11 1013.2 - 0.0
19/10:30am 22.5 23.5 19.5 83 1.9 SSE 13 20 7 11 1013.1 - 0.0
19/10:15am 21.7 22.8 19.6 88 1.3 S 13 19 7 10 1013.1 - 0.0
19/10:00am 21.1 22.5 19.5 90 1.0 S 11 20 6 11 1013.0 - 0.0
19/09:45am 21.0 22.5 19.7 92 0.8 S 11 19 6 10 1013.0 - 0.0
19/09:30am 20.7 22.1 19.6 93 0.7 S 11 17 6 9 1012.8 - 0.0
19/09:15am 20.4 21.8 19.5 95 0.6 S 11 15 6 8 1012.5 - 0.0
19/09:00am 19.2 20.4 18.2 94 0.6 S 9 13 5 7 1012.5 - 8.2
19/08:45am 19.0 20.1 18.0 94 0.6 S 9 15 5 8 1012.6 - 8.2
19/08:30am 18.9 20.0 17.9 94 0.6 S 9 11 5 6 1012.5 - 7.8
19/08:15am 18.7 19.7 17.7 94 0.6 SSW 9 13 5 7 1012.4 - 7.2
19/08:00am 18.6 19.5 17.6 94 0.6 SSW 9 11 5 6 1012.3 - 5.7
19/07:45am 18.5 19.4 17.5 94 0.6 S 9 11 5 6 1012.1 - 5.7
19/07:30am 18.4 18.5 17.4 94 0.6 SSW 13 15 7 8 1011.9 - 5.7
19/07:15am 18.3 18.7 17.3 94 0.6 S 11 13 6 7 1011.8 - 5.7
19/07:00am 18.2 18.6 17.2 94 0.6 S 11 15 6 8 1011.6 - 5.7
19/06:45am 18.1 18.1 17.1 94 0.6 S 13 15 7 8 1011.4 - 5.7
19/06:30am 17.4 17.5 16.4 94 0.6 S 11 15 6 8 1011.3 - 5.7
19/06:15am 17.4 17.5 16.4 94 0.6 S 11 11 6 6 1011.1 - 5.7
19/06:00am 17.5 17.6 16.5 94 0.6 SSW 11 13 6 7 1011.0 - 5.7
19/05:45am 17.7 18.3 16.7 94 0.6 S 9 11 5 6 1011.0 - 5.7
19/05:30am 17.7 17.9 16.7 94 0.6 SSW 11 15 6 8 1010.9 - 5.7
19/05:15am 17.7 17.9 16.7 94 0.6 S 11 15 6 8 1010.9 - 5.7
19/05:00am 17.5 17.6 16.4 93 0.7 SSW 11 15 6 8 1011.0 - 5.7
19/04:45am 17.4 17.4 16.3 93 0.7 S 11 13 6 7 1011.0 - 5.7
19/04:30am 17.7 18.2 16.6 93 0.7 S 9 11 5 6 1011.0 - 5.7
19/04:15am 17.8 18.8 16.8 94 0.6 S 7 9 4 5 1011.0 - 5.7
19/04:00am 17.9 18.5 16.9 94 0.6 S 9 13 5 7 1011.0 - 5.7
19/03:45am 17.8 18.4 16.8 94 0.6 SSE 9 11 5 6 1011.2 - 5.7
19/03:30am 17.6 17.7 16.6 94 0.6 SE 11 13 6 7 1011.2 - 5.7
19/03:15am 17.5 17.6 16.5 94 0.6 SE 11 13 6 7 1011.4 - 5.7
19/03:00am 17.5 17.6 16.4 93 0.7 SSE 11 13 6 7 1011.3 - 5.7
19/02:45am 17.4 17.8 16.3 93 0.7 SSE 9 9 5 5 1011.4 - 5.7
19/02:30am 17.6 18.5 16.5 93 0.7 S 7 7 4 4 1011.5 - 5.7
19/02:15am 17.8 18.9 16.7 93 0.7 S 6 7 3 4 1011.7 - 5.7
19/02:00am 17.9 19.5 16.9 94 0.6 S 4 6 2 3 1011.9 - 5.7
19/01:45am 18.0 20.0 16.9 93 0.7 SSW 2 6 1 3 1012.1 - 5.7
19/01:30am 18.0 19.6 16.9 93 0.7 SSW 4 6 2 3 1012.2 - 5.7
19/01:15am 17.8 19.3 16.6 93 0.7 SE 4 7 2 4 1012.3 - 5.7
19/01:00am 17.9 18.9 16.9 94 0.6 SE 7 11 4 6 1012.3 - 5.7
19/12:45am 17.8 18.7 16.7 93 0.7 SSE 7 11 4 6 1012.2 - 5.7
19/12:30am 17.8 18.7 16.7 93 0.7 SSE 7 9 4 5 1012.3 - 5.7
19/12:15am 17.8 18.4 16.7 93 0.7 S 9 11 5 6 1012.5 - 5.7
19/12:00am 17.9 18.9 16.8 93 0.7 S 7 9 4 5 1012.6 - 5.7
 
Date/Time
EDT
Temp
°C
App
Temp
°C
Dew
Point
°C
Rel
Hum
%
Delta-T
°C
Wind Press
QNH
hPa
Press
MSL
hPa
Rain since
9am
mm
Dir  Spd
km/h
Gust
km/h
Spd
kts
Gust
kts
18/11:45pm 18.0 19.2 16.8 93 0.7 S 6 7 3 4 1012.6 - 5.7
18/11:30pm 18.1 19.4 17.0 93 0.7 S 6 7 3 4 1012.5 - 5.7
18/11:15pm 18.2 19.5 17.0 93 0.7 S 6 7 3 4 1012.6 - 5.7
18/11:00pm 18.2 19.5 17.1 93 0.7 S 6 7 3 4 1012.6 - 5.7
18/10:45pm 18.2 19.5 17.1 93 0.7 S 6 7 3 4 1012.7 - 5.7
18/10:30pm 18.3 19.6 17.2 93 0.7 SSW 6 7 3 4 1012.6 - 5.7
18/10:15pm 18.3 19.6 17.2 93 0.7 SSW 6 7 3 4 1012.7 - 5.7
18/10:00pm 18.3 19.6 17.1 93 0.7 S 6 7 3 4 1012.6 - 5.7
18/09:45pm 18.3 19.6 17.1 93 0.7 S 6 7 3 4 1012.5 - 5.7
18/09:30pm 18.5 19.7 17.3 93 0.7 S 7 9 4 5 1012.5 - 5.7
18/09:15pm 18.6 19.8 17.3 92 0.8 S 7 9 4 5 1012.6 - 5.5
18/09:00pm 18.6 19.8 17.3 92 0.8 SSE 7 9 4 5 1012.4 - 5.5
18/08:45pm 18.5 19.6 17.2 92 0.8 SE 7 13 4 7 1012.2 - 5.5
18/08:30pm 18.5 19.6 17.2 92 0.8 SE 7 13 4 7 1012.1 - 4.6
18/08:15pm 18.5 19.8 17.2 92 0.8 SSE 6 9 3 5 1011.8 - 4.0
18/08:00pm 18.4 19.7 17.1 92 0.8 SE 6 7 3 4 1011.6 - 4.0
18/07:45pm 18.5 19.8 17.1 91 0.9 ESE 6 7 3 4 1011.5 - 4.0
18/07:30pm 18.5 19.6 17.1 91 0.9 SE 7 11 4 6 1011.4 - 4.0
18/07:15pm 18.6 19.9 17.1 91 0.9 SE 6 11 3 6 1011.4 - 3.4
18/07:00pm 18.7 19.8 17.1 90 1.0 SE 7 11 4 6 1011.3 - 2.7
18/06:45pm 18.8 19.9 17.1 90 1.0 SSE 7 11 4 6 1011.2 - 1.9
18/06:30pm 18.9 20.0 17.1 89 1.1 S 7 11 4 6 1011.1 - 1.7
18/06:15pm 19.0 20.1 17.1 89 1.2 SSE 7 11 4 6 1010.9 - 1.7
18/06:00pm 19.1 20.2 17.1 88 1.2 SSE 7 11 4 6 1010.7 - 1.7
18/05:45pm 19.2 20.3 17.2 88 1.2 SSE 7 11 4 6 1010.7 - 1.7
18/05:30pm 19.3 19.7 17.2 88 1.3 SSE 11 17 6 9 1010.6 - 1.7
18/05:15pm 19.4 20.2 17.3 88 1.3 SE 9 15 5 8 1010.5 - 1.7
18/05:00pm 19.2 19.6 17.3 89 1.2 SE 11 15 6 8 1010.5 - 1.7
18/04:45pm 19.3 20.2 17.6 90 1.0 SE 9 15 5 8 1010.5 - 1.7
18/04:30pm 19.4 20.8 17.7 90 1.0 ESE 7 11 4 6 1010.5 - 1.7
18/04:15pm 19.1 20.4 17.6 91 0.9 ESE 7 9 4 5 1010.4 - 1.7
18/04:00pm 19.0 20.3 17.5 91 0.9 SE 7 11 4 6 1010.5 - 1.7
18/03:45pm 19.0 20.2 17.4 90 1.0 E 7 13 4 7 1010.6 - 1.7
18/03:30pm 18.8 19.9 17.2 90 1.0 E 7 15 4 8 1010.7 - 1.5
18/03:15pm 18.7 19.4 17.1 90 1.0 ESE 9 15 5 8 1010.8 - 1.5
18/03:00pm 18.8 19.1 17.0 89 1.1 SE 11 15 6 8 1010.8 - 1.3
18/02:45pm 19.4 19.7 17.0 86 1.5 SE 11 15 6 8 1010.8 - 1.1
18/02:30pm 20.2 21.9 17.1 82 1.9 NNE 4 6 2 3 1010.7 - 0.8
18/02:15pm 20.3 21.9 17.0 81 2.0 NNW 4 7 2 4 1010.7 - 0.8
18/02:00pm 20.5 22.1 16.9 80 2.2 NW 4 7 2 4 1010.7 - 0.8
18/01:45pm 20.5 22.4 16.6 78 2.4 NW 2 7 1 4 1010.8 - 0.8
18/01:30pm 20.5 21.5 16.9 80 2.2 NW 7 11 4 6 1010.8 - 0.8
18/01:15pm 20.2 21.3 17.1 82 1.9 WNW 7 15 4 8 1010.9 - 0.8
18/01:00pm 19.8 20.6 17.3 85 1.5 WNW 9 13 5 7 1010.9 - 0.8
18/12:45pm 18.9 19.9 16.9 88 1.2 WNW 7 13 4 7 1011.0 - 0.8
18/12:30pm 18.6 19.6 16.9 90 1.0 NW 7 11 4 6 1011.1 - 0.8

Other formats

Comma delimited format used in spreadsheet applications
http://www.bom.gov.au/fwo/IDN60801/IDN60801.95757.axf

JavaScript Object Notation format (JSON) in row-major order
http://www.bom.gov.au/fwo/IDN60801/IDN60801.95757.json

Data quality

Most of these data are generated automatically and are frequently updated. Quality checks on data are not normally performed. It is possible for incorrect values to appear. Refer to information at About Latest Weather Observations and please check the disclaimer before using these data.